Urb Rubianes, Puerto Rico
Current Conditions -  °F | °C
As of 3:50 PM on Tuesday 25 Nov 2014 (Local Time) from TJBQ Reporting Station
Broken Clouds Broken Clouds  
Wind Chill: 82°   Ceiling: 8500
Heat Index: 88°   Visibility: 10mi
Dew Point: 73°   Wind: 20mph
Humidity: 74%   Direction: 90°E
Pressure: 30.01"   Gusts: 30mph
Location:  18.4409°N, 67.1508°W
Report Text: TJBQ 251950Z 09017G26KT 10SM SCT019 BKN085 28/23 A3001 RMK RWY08 ATIS X
Loading
Personal Weather Stations






























Interactive Weather Map New forecast layout! Learn more

10-Day Weather Forecast

Advertisements
Track Severe Weather on mobile